createdAt,value
2024-05-09T00:00:54.321Z,78.46
2024-05-09T00:03:21.325Z,77.60
2024-05-09T00:05:48.817Z,77.82
2024-05-09T00:08:18.843Z,77.77
2024-05-09T00:10:50.247Z,78.34
2024-05-09T00:13:17.101Z,77.36
2024-05-09T00:15:44.620Z,77.78
2024-05-09T00:18:12.250Z,77.92
2024-05-09T00:20:43.645Z,77.69
2024-05-09T00:23:12.514Z,78.21
2024-05-09T00:25:44.947Z,78.19
2024-05-09T00:28:12.964Z,78.28
2024-05-09T00:30:41.151Z,77.66
2024-05-09T00:33:10.317Z,78.43
2024-05-09T00:35:38.807Z,78.38
2024-05-09T00:38:06.137Z,78.22
2024-05-09T00:40:39.746Z,78.49
2024-05-09T00:43:16.248Z,77.67
2024-05-09T00:45:44.106Z,78.44
2024-05-09T00:48:14.959Z,78.72
2024-05-09T00:50:46.214Z,78.43
2024-05-09T00:53:17.999Z,78.31
2024-05-09T00:55:46.394Z,78.19
2024-05-09T00:58:17.342Z,77.63
2024-05-09T01:00:54.425Z,77.93
2024-05-09T01:03:22.202Z,77.83
2024-05-09T01:05:51.679Z,78.25
2024-05-09T01:08:19.226Z,78.64
2024-05-09T01:10:48.432Z,78.69
2024-05-09T01:13:15.659Z,79.12
2024-05-09T01:15:43.388Z,78.89
2024-05-09T01:18:12.649Z,79.55
2024-05-09T01:20:43.419Z,79.57
2024-05-09T01:23:14.532Z,79.59
2024-05-09T01:25:43.248Z,79.90
2024-05-09T01:28:15.322Z,79.88
2024-05-09T01:30:43.969Z,79.80
2024-05-09T01:33:12.197Z,79.11
2024-05-09T01:35:42.261Z,78.62
2024-05-09T01:38:14.119Z,78.96
2024-05-09T01:40:42.091Z,79.04
2024-05-09T01:43:11.090Z,79.00
2024-05-09T01:45:39.655Z,79.41
2024-05-09T01:48:08.156Z,79.75
2024-05-09T01:50:39.636Z,79.93
2024-05-09T01:53:11.214Z,79.90
2024-05-09T01:55:38.456Z,80.25
2024-05-09T01:58:05.439Z,80.47
2024-05-09T02:00:39.206Z,80.54
2024-05-09T02:03:11.537Z,80.78
2024-05-09T02:05:41.402Z,80.59
2024-05-09T02:08:15.414Z,80.96
2024-05-09T02:10:44.483Z,80.09
2024-05-09T02:13:11.609Z,80.68
2024-05-09T02:15:38.591Z,80.70
2024-05-09T02:18:06.416Z,80.79
2024-05-09T02:20:36.468Z,81.31
2024-05-09T02:23:06.560Z,81.17
2024-05-09T02:25:34.086Z,80.88
2024-05-09T02:28:01.403Z,81.11
2024-05-09T02:32:59.812Z,81.30
2024-05-09T02:35:31.156Z,80.51
2024-05-09T02:37:58.584Z,80.65
2024-05-09T02:40:35.106Z,80.70
2024-05-09T02:43:04.540Z,81.32
2024-05-09T02:45:31.323Z,81.72
2024-05-09T02:47:58.533Z,81.96
2024-05-09T02:50:33.769Z,82.50
2024-05-09T02:53:07.881Z,82.46
2024-05-09T02:55:35.251Z,82.64
2024-05-09T02:58:02.974Z,82.02
2024-05-09T03:00:38.926Z,82.33
2024-05-09T03:03:14.218Z,82.89
2024-05-09T03:05:46.935Z,83.25
2024-05-09T03:08:14.833Z,83.40
2024-05-09T03:10:41.977Z,83.40
2024-05-09T03:13:14.545Z,83.30
2024-05-09T03:15:45.002Z,83.74
2024-05-09T03:18:13.331Z,84.04
2024-05-09T03:20:40.800Z,83.96
2024-05-09T03:23:09.799Z,83.78
2024-05-09T03:25:37.736Z,83.42
2024-05-09T03:28:04.976Z,82.95
2024-05-09T03:30:40.477Z,82.37
2024-05-09T03:33:20.282Z,82.06
2024-05-09T03:35:49.464Z,82.09
2024-05-09T03:38:16.918Z,81.68
2024-05-09T03:40:50.015Z,81.12
2024-05-09T03:43:19.791Z,81.18
2024-05-09T03:45:50.262Z,81.70
2024-05-09T03:48:17.523Z,80.70
2024-05-09T03:50:54.468Z,80.60
2024-05-09T03:53:23.039Z,79.68
2024-05-09T03:55:52.890Z,80.08
2024-05-09T03:58:19.848Z,80.07
2024-05-09T04:00:46.835Z,80.33
2024-05-09T04:03:14.121Z,80.32
2024-05-09T04:05:42.860Z,80.02
2024-05-09T04:08:11.913Z,80.60
2024-05-09T04:10:40.691Z,80.84
2024-05-09T04:13:07.493Z,80.18
2024-05-09T04:15:34.212Z,80.89
2024-05-09T04:18:02.973Z,80.57
2024-05-09T04:20:37.674Z,81.51
2024-05-09T04:23:09.522Z,80.73
2024-05-09T04:25:36.592Z,81.85
2024-05-09T04:28:03.847Z,81.33
2024-05-09T04:30:37.447Z,81.50
2024-05-09T04:33:12.261Z,80.73
2024-05-09T04:35:44.590Z,80.94
2024-05-09T04:38:13.805Z,81.23
2024-05-09T04:40:42.746Z,81.57
2024-05-09T04:43:25.702Z,81.72
2024-05-09T04:45:54.258Z,81.48
2024-05-09T04:48:21.889Z,81.46
2024-05-09T04:50:54.962Z,80.60
2024-05-09T04:53:23.523Z,80.79
2024-05-09T04:55:51.025Z,81.69
2024-05-09T04:58:19.811Z,83.02
2024-05-09T05:00:55.071Z,84.84
2024-05-09T05:03:22.650Z,85.23
2024-05-09T05:05:50.381Z,85.13
2024-05-09T05:08:20.604Z,86.22
2024-05-09T05:10:48.923Z,87.49
2024-05-09T05:13:25.718Z,86.24
2024-05-09T05:15:56.926Z,87.02
2024-05-09T05:18:26.435Z,87.06
2024-05-09T05:20:55.906Z,89.06
2024-05-09T05:23:23.769Z,89.58
2024-05-09T05:25:53.712Z,90.68
2024-05-09T05:28:21.817Z,90.15
2024-05-09T05:30:50.086Z,90.89
2024-05-09T05:33:23.866Z,91.12
2024-05-09T05:35:53.801Z,90.96
2024-05-09T05:38:23.854Z,89.09
2024-05-09T05:40:53.200Z,89.41
2024-05-09T05:43:20.732Z,89.17
2024-05-09T05:45:47.695Z,89.62
2024-05-09T05:48:35.790Z,89.45
2024-05-09T05:51:05.908Z,89.70
2024-05-09T05:53:34.559Z,89.40
2024-05-09T05:56:05.308Z,88.06
2024-05-09T05:58:32.166Z,87.01
2024-05-09T06:00:58.957Z,87.57
2024-05-09T06:03:27.569Z,88.14
2024-05-09T06:05:58.965Z,87.13
2024-05-09T06:08:28.878Z,86.96
2024-05-09T06:11:00.806Z,86.20
2024-05-09T06:13:27.654Z,86.53
2024-05-09T06:15:54.907Z,87.40
2024-05-09T06:18:22.432Z,87.34
2024-05-09T06:20:49.304Z,86.75
2024-05-09T06:23:17.398Z,84.65
2024-05-09T06:25:44.779Z,84.57
2024-05-09T06:28:12.002Z,85.07
2024-05-09T06:30:42.548Z,85.02
2024-05-09T06:33:13.568Z,83.87
2024-05-09T06:35:43.496Z,83.39
2024-05-09T06:38:10.795Z,84.57
2024-05-09T06:40:43.519Z,84.04
2024-05-09T06:43:19.030Z,84.35
2024-05-09T06:45:54.602Z,85.04
2024-05-09T06:48:22.516Z,83.90
2024-05-09T06:50:50.355Z,82.95
2024-05-09T06:53:20.601Z,82.46
2024-05-09T06:55:48.004Z,82.30
2024-05-09T06:58:15.773Z,81.50
2024-05-09T07:00:46.945Z,81.64
2024-05-09T07:03:20.559Z,82.72
2024-05-09T07:05:51.025Z,82.07
2024-05-09T07:08:19.081Z,81.77
2024-05-09T07:10:48.257Z,81.41
2024-05-09T07:13:15.952Z,81.85
2024-05-09T07:15:46.535Z,82.77
2024-05-09T07:18:21.582Z,82.39
2024-05-09T07:20:49.702Z,81.64
2024-05-09T07:23:17.726Z,81.63
2024-05-09T07:25:47.820Z,82.02
2024-05-09T07:28:16.489Z,81.41
2024-05-09T07:30:47.026Z,81.22
2024-05-09T07:33:24.694Z,80.38
2024-05-09T07:35:52.454Z,80.50
2024-05-09T07:38:19.933Z,79.51
2024-05-09T07:40:50.052Z,79.61
2024-05-09T07:43:17.106Z,79.17
2024-05-09T07:45:52.362Z,79.65
2024-05-09T07:50:00.452Z,78.96
2024-05-09T07:53:52.128Z,78.83
2024-05-09T07:56:26.629Z,78.39
2024-05-09T07:58:54.644Z,79.26
2024-05-09T08:01:24.740Z,79.63
2024-05-09T08:03:52.327Z,78.79
2024-05-09T08:06:22.643Z,78.58
2024-05-09T08:08:50.242Z,78.89
2024-05-09T08:11:17.915Z,79.01
2024-05-09T08:13:45.314Z,79.09
2024-05-09T08:16:15.265Z,77.53
2024-05-09T08:18:43.328Z,77.08
2024-05-09T08:21:11.504Z,76.53
2024-05-09T08:23:39.509Z,76.67
2024-05-09T08:26:08.905Z,76.33
2024-05-09T08:28:36.313Z,74.61
2024-05-09T08:31:08.581Z,74.72
2024-05-09T08:33:36.471Z,74.81
2024-05-09T08:36:03.858Z,73.27
2024-05-09T08:38:33.675Z,74.40
2024-05-09T08:41:03.787Z,74.47
2024-05-09T08:43:33.890Z,74.46
2024-05-09T08:46:02.856Z,74.75
2024-05-09T08:51:28.322Z,74.15
2024-05-09T08:53:59.736Z,74.79
2024-05-09T08:56:28.830Z,75.10
2024-05-09T08:59:00.131Z,75.44
2024-05-09T09:01:30.953Z,75.88
2024-05-09T09:04:07.896Z,74.54
2024-05-09T09:06:35.898Z,74.78
2024-05-09T09:09:04.010Z,74.91
2024-05-09T09:11:31.367Z,74.63
2024-05-09T09:13:59.746Z,74.11
2024-05-09T09:16:36.202Z,72.82
2024-05-09T09:19:04.762Z,73.05
2024-05-09T09:21:31.744Z,72.76
2024-05-09T09:23:58.688Z,72.10
2024-05-09T09:26:25.741Z,71.90
2024-05-09T09:28:59.633Z,71.72
2024-05-09T09:31:26.584Z,71.28
2024-05-09T09:33:55.603Z,70.66
2024-05-09T09:36:24.761Z,71.29
2024-05-09T09:38:52.084Z,69.63
2024-05-09T09:41:25.829Z,69.93
2024-05-09T09:43:54.689Z,69.44
2024-05-09T09:46:22.542Z,69.99
2024-05-09T09:48:49.962Z,67.78
2024-05-09T09:51:17.047Z,66.60
2024-05-09T09:53:44.663Z,66.35
2024-05-09T09:56:15.769Z,66.62
2024-05-09T09:58:47.193Z,65.56
2024-05-09T10:01:14.382Z,65.38
2024-05-09T10:03:42.376Z,65.88
2024-05-09T10:06:16.140Z,65.68
2024-05-09T10:08:43.563Z,64.21
2024-05-09T10:11:10.950Z,64.48
2024-05-09T10:13:44.687Z,64.19
2024-05-09T10:16:12.427Z,63.56
2024-05-09T10:18:43.522Z,63.80
2024-05-09T10:21:17.593Z,63.86
2024-05-09T10:24:00.105Z,63.88
2024-05-09T10:26:56.105Z,61.89
2024-05-09T10:29:24.570Z,62.18
2024-05-09T10:31:54.330Z,61.85
2024-05-09T10:34:24.962Z,61.31
2024-05-09T10:36:55.879Z,61.53
2024-05-09T10:39:25.682Z,61.89
2024-05-09T10:41:52.702Z,61.98
2024-05-09T10:44:22.624Z,62.53
2024-05-09T10:46:50.869Z,61.85
2024-05-09T10:49:18.730Z,62.23
2024-05-09T10:51:49.422Z,61.77
2024-05-09T10:54:19.811Z,61.92
2024-05-09T10:56:47.510Z,62.12
2024-05-09T10:59:15.319Z,60.48
2024-05-09T11:01:42.446Z,60.29
2024-05-09T11:04:09.853Z,60.60
2024-05-09T11:06:38.904Z,59.74
2024-05-09T11:09:07.002Z,60.49
2024-05-09T11:11:34.299Z,59.90
2024-05-09T11:14:13.083Z,58.49
2024-05-09T11:16:40.478Z,60.26
2024-05-09T11:19:13.118Z,60.21
2024-05-09T11:21:43.535Z,60.78
2024-05-09T11:24:11.313Z,60.13
2024-05-09T11:26:38.758Z,59.87
2024-05-09T11:29:05.749Z,59.60
2024-05-09T11:31:33.205Z,59.45
2024-05-09T11:34:00.784Z,59.90
2024-05-09T11:36:29.148Z,59.57
2024-05-09T11:38:58.204Z,60.21
2024-05-09T11:41:30.614Z,59.92
2024-05-09T11:43:58.340Z,58.96
2024-05-09T11:46:26.077Z,58.26
2024-05-09T11:48:55.098Z,58.31
2024-05-09T11:51:22.141Z,57.82
2024-05-09T11:53:49.197Z,57.05
2024-05-09T11:56:17.577Z,56.44
2024-05-09T11:58:44.413Z,55.58
2024-05-09T12:01:13.927Z,54.45
2024-05-09T12:03:40.997Z,54.34
2024-05-09T12:06:08.360Z,53.92
2024-05-09T12:08:36.145Z,53.30
2024-05-09T12:11:05.076Z,51.56
2024-05-09T12:13:34.742Z,50.30
2024-05-09T12:16:07.823Z,49.81
2024-05-09T12:18:35.325Z,48.33
2024-05-09T12:21:04.839Z,47.77
2024-05-09T12:23:32.329Z,47.80
2024-05-09T12:25:59.899Z,46.85
2024-05-09T12:28:31.498Z,46.62
2024-05-09T12:30:59.954Z,46.26
2024-05-09T12:33:28.139Z,45.49
2024-05-09T12:35:56.367Z,44.88
2024-05-09T12:38:23.721Z,44.35
2024-05-09T12:40:50.799Z,44.02
2024-05-09T12:43:17.930Z,42.33
2024-05-09T12:45:45.150Z,43.02
2024-05-09T12:48:14.348Z,43.43
2024-05-09T12:50:42.344Z,43.45
2024-05-09T12:53:14.212Z,43.57
2024-05-09T12:55:48.429Z,42.83
2024-05-09T12:58:24.763Z,42.00
2024-05-09T13:00:53.642Z,42.12
2024-05-09T13:03:22.274Z,40.92
2024-05-09T13:05:52.668Z,40.04
2024-05-09T13:08:20.836Z,39.39
2024-05-09T13:10:48.800Z,40.36
2024-05-09T13:13:16.913Z,38.88
2024-05-09T13:15:48.235Z,38.51
2024-05-09T13:18:17.982Z,39.74
2024-05-09T13:20:45.253Z,39.62
2024-05-09T13:23:12.939Z,40.84
2024-05-09T13:25:41.766Z,40.54
2024-05-09T13:28:10.875Z,40.10
2024-05-09T13:30:40.888Z,41.66
2024-05-09T13:33:11.994Z,41.23
2024-05-09T13:35:49.474Z,42.11
2024-05-09T13:38:25.206Z,41.58
2024-05-09T13:40:58.291Z,42.26
2024-05-09T13:43:29.160Z,42.91
2024-05-09T13:45:57.641Z,43.20
2024-05-09T13:48:24.869Z,43.56
2024-05-09T13:50:52.404Z,44.33
2024-05-09T13:53:20.363Z,44.53
2024-05-09T13:55:49.771Z,44.47
2024-05-09T13:58:17.963Z,43.59
2024-05-09T14:00:49.514Z,44.09
2024-05-09T14:03:20.289Z,45.00
2024-05-09T14:05:48.756Z,44.23
2024-05-09T14:08:18.824Z,45.13
2024-05-09T14:10:48.601Z,45.19
2024-05-09T14:13:16.313Z,45.51
2024-05-09T14:15:47.190Z,45.68
2024-05-09T14:18:14.787Z,46.46
2024-05-09T14:20:44.285Z,46.18
2024-05-09T14:23:11.967Z,46.31
2024-05-09T14:25:42.525Z,46.38
2024-05-09T14:28:12.540Z,45.74
2024-05-09T14:30:40.521Z,45.02
2024-05-09T14:33:11.723Z,45.14
2024-05-09T14:35:39.314Z,43.22
2024-05-09T14:38:08.773Z,44.25
2024-05-09T14:40:42.380Z,44.75
2024-05-09T14:43:15.146Z,45.15
2024-05-09T14:45:47.035Z,45.30
2024-05-09T14:48:15.413Z,45.62
2024-05-09T14:50:42.849Z,45.36
2024-05-09T14:53:14.137Z,45.37
2024-05-09T14:55:43.553Z,44.83
2024-05-09T14:58:12.994Z,45.44
2024-05-09T15:00:48.527Z,45.31
2024-05-09T15:03:22.250Z,45.75
2024-05-09T15:05:50.315Z,45.75
2024-05-09T15:08:19.759Z,45.79
2024-05-09T15:10:47.349Z,46.50
2024-05-09T15:13:17.109Z,46.38
2024-05-09T15:15:44.675Z,46.46
2024-05-09T15:18:16.656Z,46.43
2024-05-09T15:20:45.256Z,46.70
2024-05-09T15:23:13.859Z,46.80
2024-05-09T15:25:41.949Z,46.74
2024-05-09T15:28:12.026Z,46.21
2024-05-09T15:30:40.652Z,45.92
2024-05-09T15:33:09.168Z,46.11
2024-05-09T15:35:41.387Z,45.63
2024-05-09T15:38:09.795Z,46.08
2024-05-09T15:40:40.053Z,46.24
2024-05-09T15:43:10.535Z,45.51
2024-05-09T15:45:41.127Z,45.68
2024-05-09T15:48:09.171Z,45.92
2024-05-09T15:50:41.414Z,46.22
2024-05-09T15:53:11.834Z,45.83
2024-05-09T15:55:39.435Z,45.52
2024-05-09T15:58:08.462Z,45.21
2024-05-09T16:00:39.957Z,45.30
2024-05-09T16:03:16.328Z,45.60
2024-05-09T16:05:48.279Z,45.44
2024-05-09T16:08:19.071Z,45.27
2024-05-09T16:10:48.847Z,44.66
2024-05-09T16:13:18.712Z,45.45
2024-05-09T16:15:46.393Z,44.96
2024-05-09T16:18:14.933Z,45.13
2024-05-09T16:20:44.819Z,44.87
2024-05-09T16:23:13.532Z,44.99
2024-05-09T16:25:46.464Z,44.17
2024-05-09T16:30:41.500Z,43.94
2024-05-09T16:33:11.166Z,44.42
2024-05-09T16:35:41.008Z,43.91
2024-05-09T16:38:08.395Z,43.52
2024-05-09T16:40:40.241Z,43.90
2024-05-09T16:43:10.022Z,44.40
2024-05-09T16:45:38.084Z,43.70
2024-05-09T16:48:06.151Z,43.99
2024-05-09T16:50:37.701Z,44.28
2024-05-09T16:53:07.305Z,44.12
2024-05-09T16:55:36.268Z,43.85
2024-05-09T16:58:04.156Z,44.55
2024-05-09T17:03:07.542Z,43.98
2024-05-09T17:05:35.576Z,44.25
2024-05-09T17:08:03.168Z,44.91
2024-05-09T17:10:34.076Z,45.11
2024-05-09T17:13:07.157Z,45.52
2024-05-09T17:15:36.194Z,45.23
2024-05-09T17:18:04.412Z,45.39
2024-05-09T17:20:34.762Z,45.86
2024-05-09T17:23:05.829Z,45.97
2024-05-09T17:25:35.786Z,45.43
2024-05-09T17:28:08.547Z,46.28
2024-05-09T17:30:39.023Z,46.06
2024-05-09T17:33:10.390Z,46.03
2024-05-09T17:35:38.855Z,46.27
2024-05-09T17:38:07.342Z,46.06
2024-05-09T17:40:37.379Z,46.84
2024-05-09T17:43:06.785Z,47.13
2024-05-09T17:45:41.493Z,47.12
2024-05-09T17:48:11.658Z,47.11
2024-05-09T17:50:40.200Z,47.24
2024-05-09T17:53:08.930Z,47.28
2024-05-09T17:55:36.951Z,47.00
2024-05-09T17:58:05.234Z,47.65
2024-05-09T18:00:38.768Z,47.69
2024-05-09T18:03:14.754Z,47.59
2024-05-09T18:05:44.118Z,47.67
2024-05-09T18:08:13.360Z,47.71
2024-05-09T18:10:41.491Z,47.82
2024-05-09T18:13:09.734Z,48.16
2024-05-09T18:15:44.558Z,47.79
2024-05-09T18:18:12.467Z,48.14
2024-05-09T18:20:46.175Z,48.21
2024-05-09T18:23:16.154Z,48.28
2024-05-09T18:25:45.116Z,48.43
2024-05-09T18:28:13.531Z,48.84
2024-05-09T18:30:41.665Z,48.97
2024-05-09T18:33:11.697Z,49.09
2024-05-09T18:35:41.901Z,49.19
2024-05-09T18:38:09.913Z,49.68
2024-05-09T18:40:44.747Z,49.58
2024-05-09T18:43:14.344Z,49.77
2024-05-09T18:45:41.354Z,49.57
2024-05-09T18:48:14.492Z,49.73
2024-05-09T18:50:41.919Z,50.11
2024-05-09T18:53:18.090Z,50.74
2024-05-09T18:55:48.620Z,50.45
2024-05-09T18:58:17.840Z,51.12
2024-05-09T19:00:49.296Z,51.34
2024-05-09T19:03:19.286Z,51.67
2024-05-09T19:05:47.820Z,50.91
2024-05-09T19:08:16.583Z,51.53
2024-05-09T19:10:47.241Z,51.12
2024-05-09T19:13:17.006Z,51.88
2024-05-09T19:15:44.692Z,52.06
2024-05-09T19:18:16.184Z,52.24
2024-05-09T19:20:44.304Z,52.25
2024-05-09T19:23:12.320Z,52.20
2024-05-09T19:25:40.308Z,52.73
2024-05-09T19:28:07.797Z,53.14
2024-05-09T19:30:40.231Z,52.64
2024-05-09T19:33:12.735Z,52.80
2024-05-09T19:35:44.223Z,53.75
2024-05-09T19:38:12.599Z,53.33
2024-05-09T19:40:40.500Z,53.21
2024-05-09T19:43:08.134Z,53.65
2024-05-09T19:45:36.349Z,53.67
2024-05-09T19:48:06.244Z,54.27
2024-05-09T19:50:41.382Z,54.49
2024-05-09T19:53:12.554Z,54.44
2024-05-09T19:55:45.932Z,54.42
2024-05-09T19:58:14.959Z,54.79
2024-05-09T20:00:44.015Z,55.36
2024-05-09T20:03:13.430Z,55.44
2024-05-09T20:05:43.241Z,56.25
2024-05-09T20:08:10.891Z,55.82
2024-05-09T20:10:39.492Z,55.29
2024-05-09T20:13:09.313Z,55.79
2024-05-09T20:15:38.059Z,55.59
2024-05-09T20:18:07.296Z,55.89
2024-05-09T20:20:40.255Z,56.26
2024-05-09T20:23:13.389Z,56.98
2024-05-09T20:25:41.564Z,57.01
2024-05-09T20:28:12.898Z,57.48
2024-05-09T20:30:43.062Z,57.32
2024-05-09T20:33:15.055Z,57.73
2024-05-09T20:35:42.385Z,57.55
2024-05-09T20:38:11.163Z,57.84
2024-05-09T20:40:39.717Z,58.30
2024-05-09T20:43:11.029Z,58.11
2024-05-09T20:45:38.808Z,58.71
2024-05-09T20:48:08.218Z,58.99
2024-05-09T20:50:40.780Z,59.03
2024-05-09T20:53:14.249Z,59.75
2024-05-09T20:55:45.451Z,60.01
2024-05-09T20:58:16.825Z,60.34
2024-05-09T21:00:45.804Z,59.88
2024-05-09T21:03:17.496Z,60.70
2024-05-09T21:05:45.784Z,60.72
2024-05-09T21:08:13.135Z,60.94
2024-05-09T21:10:40.432Z,60.68
2024-05-09T21:13:10.750Z,61.04
2024-05-09T21:15:39.134Z,61.22
2024-05-09T21:18:06.737Z,61.53
2024-05-09T21:20:35.020Z,61.17
2024-05-09T21:23:03.241Z,61.92
2024-05-09T21:25:33.644Z,61.48
2024-05-09T21:28:01.741Z,61.79
2024-05-09T21:30:38.507Z,61.15
2024-05-09T21:33:10.847Z,60.88
2024-05-09T21:35:40.108Z,60.60
2024-05-09T21:38:09.011Z,60.66
2024-05-09T21:40:38.027Z,60.31
2024-05-09T21:43:07.211Z,62.25
2024-05-09T21:45:35.709Z,62.82
2024-05-09T21:48:07.215Z,62.95
2024-05-09T21:50:40.017Z,62.93
2024-05-09T21:53:10.043Z,63.68
2024-05-09T21:55:37.579Z,63.59
2024-05-09T21:58:05.289Z,63.77
2024-05-09T22:00:37.620Z,64.27
2024-05-09T22:03:11.361Z,64.57
2024-05-09T22:05:42.555Z,64.79
2024-05-09T22:08:11.193Z,64.75
2024-05-09T22:10:41.632Z,64.72
2024-05-09T22:13:09.151Z,64.66
2024-05-09T22:15:41.588Z,65.05
2024-05-09T22:18:10.481Z,65.19
2024-05-09T22:20:46.514Z,65.11
2024-05-09T22:23:15.389Z,65.75
2024-05-09T22:25:42.696Z,65.60
2024-05-09T22:28:14.439Z,65.34
2024-05-09T22:30:44.400Z,65.61
2024-05-09T22:33:12.715Z,65.61
2024-05-09T22:35:41.234Z,65.48
2024-05-09T22:38:08.862Z,65.33
2024-05-09T22:40:45.591Z,65.45
2024-05-09T22:43:23.055Z,65.51
2024-05-09T22:45:51.971Z,65.70
2024-05-09T22:48:19.511Z,65.66
2024-05-09T22:50:50.879Z,66.20
2024-05-09T22:53:27.512Z,65.84
2024-05-09T22:55:55.308Z,66.30
2024-05-09T22:58:24.064Z,66.19
2024-05-09T23:00:52.317Z,66.02
2024-05-09T23:03:30.090Z,66.29
2024-05-09T23:05:57.491Z,66.56
2024-05-09T23:08:25.221Z,66.15
2024-05-09T23:10:54.834Z,65.26
2024-05-09T23:13:22.946Z,65.39
2024-05-09T23:15:50.295Z,65.96
2024-05-09T23:18:17.602Z,66.15
2024-05-09T23:20:44.618Z,66.27
2024-05-09T23:23:12.466Z,66.13
2024-05-09T23:25:43.061Z,66.13
2024-05-09T23:28:12.971Z,66.69
2024-05-09T23:30:47.979Z,66.77
2024-05-09T23:33:16.416Z,67.22
2024-05-09T23:35:45.138Z,67.79
2024-05-09T23:38:16.391Z,67.77
2024-05-09T23:40:45.090Z,67.68
2024-05-09T23:43:15.440Z,67.96
2024-05-09T23:45:43.613Z,67.84
2024-05-09T23:48:11.420Z,68.39
2024-05-09T23:50:47.893Z,68.73
2024-05-09T23:53:16.069Z,68.92
2024-05-09T23:55:43.007Z,69.04
2024-05-09T23:58:11.849Z,68.66
